Time;durP1;ratioP1;P1;durP2;ratioP2;P2;SDS_P1;SDS_P2;PMS_P1;PMS_P2;Temp;Humidity;BMP_temperature;BMP_pressure;BME280_temperature;BME280_humidity;BME280_pressure;Samples;Min_cycle;Max_cycle;Signal;HPM_P1;HPM_P2
2022/05/16 00:02:25;;;;;;;4.97;4.57;;;18.10;99.90;;;;;;5051335;28;20536;-44
2022/05/16 00:04:52;;;;;;;8.00;4.30;;;18.10;99.90;;;;;;5051359;28;20520;-43
2022/05/16 00:07:21;;;;;;;6.13;4.30;;;18.10;99.90;;;;;;5051130;28;20526;-44
2022/05/16 00:09:49;;;;;;;5.30;4.07;;;18.00;99.90;;;;;;5050805;28;20941;-44
2022/05/16 00:12:16;;;;;;;7.10;5.43;;;18.00;99.90;;;;;;5051233;28;20445;-43
2022/05/16 00:14:45;;;;;;;4.17;3.77;;;18.00;99.90;;;;;;5050805;28;20532;-44
2022/05/16 00:17:12;;;;;;;6.13;4.50;;;18.10;99.90;;;;;;5050977;28;20850;-43
2022/05/16 00:19:41;;;;;;;4.90;4.40;;;18.10;99.90;;;;;;5050525;28;20441;-43
2022/05/16 00:22:09;;;;;;;5.73;4.77;;;18.10;99.90;;;;;;5051099;28;20500;-47
2022/05/16 00:24:39;;;;;;;8.33;4.30;;;18.10;99.90;;;;;;5050675;28;20484;-44
2022/05/16 00:27:06;;;;;;;4.40;4.10;;;18.10;99.90;;;;;;5051029;28;20560;-43
2022/05/16 00:29:33;;;;;;;4.50;4.10;;;18.20;99.90;;;;;;5050688;28;20969;-43
2022/05/16 00:32:00;;;;;;;5.50;4.23;;;18.20;99.90;;;;;;5050910;28;20473;-43
2022/05/16 00:34:26;;;;;;;5.10;4.57;;;18.20;99.90;;;;;;5050845;28;20445;-44
2022/05/16 00:36:55;;;;;;;4.13;3.83;;;18.20;99.90;;;;;;5050640;28;20762;-47
2022/05/16 00:39:23;;;;;;;6.03;4.37;;;18.20;99.90;;;;;;5050749;28;20445;-45
2022/05/16 00:41:51;;;;;;;4.90;4.20;;;18.20;99.90;;;;;;5050946;28;20456;-46
2022/05/16 00:44:20;;;;;;;5.67;4.50;;;18.20;99.90;;;;;;5050931;28;20528;-44
2022/05/16 00:46:48;;;;;;;4.70;4.10;;;18.10;99.90;;;;;;5049799;28;20473;-45
2022/05/16 00:49:21;;;;;;;7.47;4.60;;;18.00;99.90;;;;;;5050744;28;20975;-44
2022/05/16 00:51:53;;;;;;;5.47;4.50;;;18.10;99.90;;;;;;5052915;28;20528;-44
2022/05/16 00:54:24;;;;;;;5.20;4.73;;;18.20;99.90;;;;;;5054147;28;20441;-44
2022/05/16 00:56:54;;;;;;;5.70;4.70;;;18.20;99.90;;;;;;5054289;28;20918;-44
2022/05/16 00:59:28;;;;;;;8.20;5.37;;;18.40;99.90;;;;;;5054074;28;20449;-44
2022/05/16 01:04:49;;;;;;;8.43;4.40;;;18.50;99.90;;;;;;5054170;28;20495;-43
2022/05/16 01:07:21;;;;;;;4.67;4.13;;;18.50;99.90;;;;;;5054153;28;20508;-43
2022/05/16 01:09:49;;;;;;;10.53;5.20;;;18.40;99.90;;;;;;5053628;28;20477;-46
2022/05/16 01:12:16;;;;;;;5.67;4.90;;;18.40;99.90;;;;;;5053970;28;20441;-44
2022/05/16 01:14:54;;;;;;;5.20;4.40;;;18.40;99.90;;;;;;5053868;28;20491;-44
2022/05/16 01:17:21;;;;;;;5.90;5.00;;;18.50;99.90;;;;;;5053916;28;20453;-44
2022/05/16 01:19:49;;;;;;;4.80;4.33;;;18.50;99.90;;;;;;5053498;28;20477;-45
2022/05/16 01:22:25;;;;;;;6.37;4.90;;;18.40;99.90;;;;;;5054298;28;20441;-43
2022/05/16 01:24:54;;;;;;;5.63;4.43;;;18.40;99.90;;;;;;5053831;28;20468;-48
2022/05/16 01:27:22;;;;;;;5.33;4.60;;;18.40;99.90;;;;;;5053684;28;20509;-43
2022/05/16 01:29:49;;;;;;;5.33;4.83;;;18.40;99.90;;;;;;5053439;28;20469;-45
2022/05/16 01:32:18;;;;;;;5.50;4.23;;;18.10;99.90;;;;;;5053544;28;20528;-44
2022/05/16 01:34:45;;;;;;;5.50;4.80;;;17.90;99.90;;;;;;5053494;28;20961;-47
2022/05/16 01:37:14;;;;;;;5.13;4.63;;;17.80;99.90;;;;;;5053592;28;20501;-44
2022/05/16 01:39:42;;;;;;;6.13;4.63;;;17.90;99.90;;;;;;5053438;28;20437;-44
2022/05/16 01:42:14;;;;;;;5.70;5.10;;;18.00;99.90;;;;;;5053701;28;20484;-46
2022/05/16 01:44:41;;;;;;;4.93;4.47;;;18.00;99.90;;;;;;5053556;28;20562;-44
2022/05/16 01:47:08;;;;;;;5.83;4.60;;;18.10;99.90;;;;;;5053140;28;21048;-44
2022/05/16 01:49:35;;;;;;;5.60;4.53;;;18.20;99.90;;;;;;5052825;28;20473;-43
2022/05/16 01:52:02;;;;;;;6.70;5.10;;;18.20;99.90;;;;;;5053282;28;20441;-44
2022/05/16 01:54:29;;;;;;;5.53;4.67;;;18.30;99.90;;;;;;5053154;28;20507;-44
2022/05/16 01:56:58;;;;;;;5.80;5.20;;;18.30;99.90;;;;;;5052644;28;20549;-46
2022/05/16 01:59:24;;;;;;;7.07;6.00;;;17.90;99.90;;;;;;5052795;28;20461;-47
2022/05/16 02:01:51;;;;;;;7.63;5.00;;;17.80;99.90;;;;;;5052648;28;20473;-44
2022/05/16 02:04:18;;;;;;;6.03;4.93;;;17.90;99.90;;;;;;5052680;28;20475;-44
2022/05/16 02:06:45;;;;;;;5.60;5.10;;;17.90;99.90;;;;;;5052980;28;20445;-45
2022/05/16 02:09:12;;;;;;;6.43;5.20;;;18.00;99.90;;;;;;5052416;28;20895;-44
2022/05/16 02:11:39;;;;;;;5.20;4.70;;;18.10;99.90;;;;;;5052857;28;20452;-44
2022/05/16 02:14:07;;;;;;;8.17;5.50;;;18.00;99.90;;;;;;5052710;28;20481;-45
2022/05/16 02:16:34;;;;;;;7.70;5.10;;;17.90;99.90;;;;;;5052496;28;20448;-44
2022/05/16 02:19:01;;;;;;;5.67;5.10;;;18.00;99.90;;;;;;5052503;28;20522;-43
2022/05/16 02:26:57;;;;;;;6.47;5.53;;;17.30;99.90;;;;;;5052445;28;20490;-43
2022/05/16 02:29:25;;;;;;;6.90;6.20;;;17.50;99.90;;;;;;5052370;28;20445;-43
2022/05/16 02:31:52;;;;;;;6.77;5.73;;;17.60;99.90;;;;;;5052300;28;20472;-43
2022/05/16 02:34:19;;;;;;;7.17;5.70;;;17.70;99.90;;;;;;5052547;28;20469;-44
2022/05/16 02:36:46;;;;;;;7.80;7.00;;;17.70;99.90;;;;;;5052476;28;20511;-43
2022/05/16 02:39:15;;;;;;;7.30;5.23;;;17.70;99.90;;;;;;5052152;28;20776;-46
2022/05/16 02:41:43;;;;;;;7.03;6.20;;;17.70;99.90;;;;;;5052485;28;20487;-43
2022/05/16 02:44:10;;;;;;;9.20;6.60;;;17.60;99.90;;;;;;5052390;28;20445;-43
2022/05/16 02:46:39;;;;;;;6.80;5.47;;;17.30;99.90;;;;;;5052339;28;20455;-44
2022/05/16 02:49:05;;;;;;;6.60;6.00;;;17.30;99.90;;;;;;5051773;28;20643;-47
2022/05/16 02:51:33;;;;;;;6.50;5.93;;;17.20;99.90;;;;;;5052109;28;20488;-44
2022/05/16 02:54:00;;;;;;;5.77;5.23;;;17.30;99.90;;;;;;5051846;28;20452;-47
2022/05/16 02:56:28;;;;;;;6.77;6.17;;;17.40;99.90;;;;;;5052166;28;20487;-44
2022/05/16 02:58:55;;;;;;;5.93;5.47;;;17.40;99.90;;;;;;5051289;28;20469;-44
2022/05/16 03:01:22;;;;;;;5.60;5.10;;;17.50;99.90;;;;;;5051990;28;20529;-44
2022/05/16 03:03:50;;;;;;;7.00;6.40;;;17.60;99.90;;;;;;5051933;28;20442;-45
2022/05/16 03:06:18;;;;;;;8.43;5.93;;;17.70;99.90;;;;;;5051971;28;20445;-44
2022/05/16 03:08:45;;;;;;;6.67;6.00;;;17.70;99.90;;;;;;5051237;28;20568;-44
2022/05/16 03:11:12;;;;;;;6.00;5.40;;;17.80;99.90;;;;;;5052043;28;20555;-43
2022/05/16 03:13:39;;;;;;;11.67;6.73;;;17.80;99.90;;;;;;5051223;28;20445;-44
2022/05/16 03:16:07;;;;;;;6.97;5.70;;;17.80;99.90;;;;;;5051691;28;20445;-44
2022/05/16 03:18:34;;;;;;;10.47;7.60;;;17.40;99.90;;;;;;5051753;28;20491;-45
2022/05/16 03:21:02;;;;;;;6.90;6.30;;;17.00;99.90;;;;;;5051605;28;20511;-44
2022/05/16 03:23:29;;;;;;;7.33;6.50;;;16.90;99.90;;;;;;5051702;28;20449;-44
2022/05/16 03:25:56;;;;;;;7.53;6.60;;;16.90;99.90;;;;;;5051458;28;20495;-45
2022/05/16 03:28:23;;;;;;;7.90;6.30;;;17.00;99.90;;;;;;5051311;28;20531;-44
2022/05/16 03:30:50;;;;;;;7.47;5.97;;;17.10;99.90;;;;;;5051153;28;20506;-45
2022/05/16 03:33:17;;;;;;;6.73;6.00;;;17.10;99.90;;;;;;5051325;28;20445;-44
2022/05/16 03:35:44;;;;;;;6.80;5.40;;;17.20;99.90;;;;;;5051587;28;20441;-43
2022/05/16 03:40:41;;;;;;;7.30;6.53;;;17.20;99.90;;;;;;5051409;28;20560;-44
2022/05/16 03:40:59;;;;;;;7.43;5.67;;;17.20;99.90;;;;;;5051060;28;20463;-43
2022/05/16 03:43:26;;;;;;;6.33;5.63;;;17.30;99.90;;;;;;5051150;28;20448;-44
2022/05/16 03:45:54;;;;;;;5.83;5.23;;;17.50;99.90;;;;;;5051260;28;20988;-43
2022/05/16 03:48:20;;;;;;;7.00;6.30;;;17.50;99.90;;;;;;5051087;28;20993;-43
2022/05/16 03:50:47;;;;;;;6.67;5.60;;;17.60;99.90;;;;;;5051014;28;20468;-46
2022/05/16 03:53:16;;;;;;;9.23;7.90;;;17.60;99.90;;;;;;5051287;28;20484;-44
2022/05/16 03:55:43;;;;;;;8.50;6.60;;;17.60;99.90;;;;;;5051045;28;20481;-45
2022/05/16 03:58:09;;;;;;;7.60;6.27;;;17.50;99.90;;;;;;5050857;28;20468;-43
2022/05/16 04:00:37;;;;;;;6.50;5.80;;;17.30;99.90;;;;;;5051212;28;20480;-45
2022/05/16 04:03:04;;;;;;;7.23;6.53;;;17.30;99.90;;;;;;5051489;28;20489;-46
2022/05/16 04:05:32;;;;;;;8.60;5.77;;;17.40;99.90;;;;;;5051169;28;20437;-44
2022/05/16 04:07:59;;;;;;;7.60;6.20;;;17.50;99.90;;;;;;5051057;28;20481;-44
2022/05/16 04:10:27;;;;;;;6.60;5.80;;;17.50;99.90;;;;;;5050815;28;20441;-44
2022/05/16 04:12:54;;;;;;;6.80;5.53;;;17.50;99.90;;;;;;5050921;28;20528;-43
2022/05/16 04:15:22;;;;;;;6.37;5.77;;;17.50;99.90;;;;;;5051148;28;20455;-44
2022/05/16 04:17:49;;;;;;;6.90;5.87;;;17.50;99.90;;;;;;5051600;28;20453;-43
2022/05/16 04:20:17;;;;;;;7.37;6.77;;;17.50;99.90;;;;;;5050349;28;20980;-44
2022/05/16 04:22:44;;;;;;;5.80;5.23;;;17.60;99.90;;;;;;5050843;28;20818;-44
2022/05/16 04:25:12;;;;;;;9.63;6.00;;;17.60;99.90;;;;;;5050948;28;20486;-44
2022/05/16 04:27:41;;;;;;;6.67;6.07;;;17.60;99.90;;;;;;5054776;28;20488;-44
2022/05/16 04:30:10;;;;;;;6.40;5.33;;;17.60;99.90;;;;;;5054482;28;20480;-43
2022/05/16 04:32:37;;;;;;;9.03;6.27;;;17.70;99.90;;;;;;5054838;28;20851;-44
2022/05/16 04:35:05;;;;;;;6.67;5.87;;;17.70;99.90;;;;;;5055103;28;20465;-44
2022/05/16 04:37:33;;;;;;;6.27;5.63;;;17.70;99.90;;;;;;5054733;28;20472;-46
2022/05/16 04:40:00;;;;;;;6.80;6.10;;;17.70;99.90;;;;;;5054373;28;20937;-46
2022/05/16 04:42:42;;;;;;;6.23;5.63;;;17.70;99.90;;;;;;5054476;28;20937;-44
2022/05/16 04:45:15;;;;;;;9.83;8.80;;;17.70;99.90;;;;;;5054564;28;20530;-43
2022/05/16 04:47:43;;;;;;;7.23;6.53;;;17.80;99.90;;;;;;5054384;28;20485;-46
2022/05/16 04:50:12;;;;;;;6.33;5.60;;;17.80;99.90;;;;;;5054454;28;20441;-43
2022/05/16 04:52:39;;;;;;;5.83;5.33;;;17.80;99.90;;;;;;5054625;28;20437;-43
2022/05/16 04:55:07;;;;;;;7.77;6.67;;;17.80;99.90;;;;;;5054610;28;20499;-44
2022/05/16 04:57:34;;;;;;;8.67;7.87;;;17.60;99.90;;;;;;5054577;28;20508;-45
2022/05/16 05:00:02;;;;;;;11.20;8.67;;;17.30;99.90;;;;;;5054272;28;20452;-44
2022/05/16 05:02:30;;;;;;;8.03;7.27;;;17.20;99.90;;;;;;5054101;28;20949;-44
2022/05/16 05:04:59;;;;;;;8.80;7.20;;;17.10;99.90;;;;;;5054337;28;20503;-44
2022/05/16 05:07:26;;;;;;;7.40;6.70;;;17.20;99.90;;;;;;5053925;28;20548;-44
2022/05/16 05:15:22;;;;;;;6.30;5.70;;;17.50;99.90;;;;;;5054679;28;20503;-44
2022/05/16 05:17:50;;;;;;;6.60;5.90;;;17.50;99.90;;;;;;5053812;28;20465;-44
2022/05/16 05:20:18;;;;;;;9.70;7.97;;;17.60;99.90;;;;;;5053642;28;20441;-44
2022/05/16 05:22:47;;;;;;;8.33;7.53;;;17.60;99.90;;;;;;5053792;28;20476;-46
2022/05/16 05:25:17;;;;;;;7.73;6.83;;;17.60;99.90;;;;;;5053735;28;20498;-45
2022/05/16 05:27:44;;;;;;;10.00;6.63;;;17.60;99.90;;;;;;5053560;28;20465;-45
2022/05/16 05:30:14;;;;;;;7.53;6.80;;;17.70;99.90;;;;;;5053267;28;20429;-44
2022/05/16 05:32:42;;;;;;;7.70;6.90;;;17.70;99.90;;;;;;5053295;28;20437;-45
2022/05/16 05:35:11;;;;;;;8.93;8.03;;;17.70;99.90;;;;;;5053390;28;20452;-44
2022/05/16 05:37:38;;;;;;;9.13;7.37;;;17.70;99.90;;;;;;5052980;28;20503;-46
2022/05/16 05:40:07;;;;;;;11.60;8.60;;;17.50;99.90;;;;;;5053023;28;20441;-44
2022/05/16 05:42:35;;;;;;;9.17;7.27;;;17.20;99.90;;;;;;5053329;28;21005;-47
2022/05/16 05:45:04;;;;;;;8.80;7.90;;;17.30;99.90;;;;;;5053524;28;20529;-47
2022/05/16 05:47:31;;;;;;;9.17;7.30;;;17.40;99.90;;;;;;5053096;28;20500;-45
2022/05/16 05:49:59;;;;;;;9.17;8.10;;;17.50;99.90;;;;;;5053059;28;20516;-45
2022/05/16 05:52:28;;;;;;;8.40;7.60;;;17.60;99.90;;;;;;5053108;28;20855;-44
2022/05/16 05:54:56;;;;;;;9.23;7.50;;;17.70;99.90;;;;;;5053184;28;20445;-44
2022/05/16 05:57:25;;;;;;;8.87;7.50;;;17.70;99.90;;;;;;5053896;28;20520;-47
2022/05/16 05:59:52;;;;;;;9.63;8.07;;;17.80;99.90;;;;;;5053000;28;20938;-46
2022/05/16 06:02:20;;;;;;;8.40;7.13;;;17.90;99.90;;;;;;5053037;28;20446;-44
2022/05/16 06:04:47;;;;;;;8.33;7.53;;;18.10;99.90;;;;;;5053226;28;20473;-44
2022/05/16 06:07:15;;;;;;;9.10;8.20;;;17.80;99.90;;;;;;5052929;28;20549;-44
2022/05/16 06:09:43;;;;;;;12.10;8.60;;;17.60;99.90;;;;;;5052394;28;20527;-44
2022/05/16 06:12:11;;;;;;;8.70;7.90;;;17.50;99.90;;;;;;5052961;28;20438;-43
2022/05/16 06:14:38;;;;;;;8.27;7.47;;;17.80;99.90;;;;;;5052816;28;20559;-44
2022/05/16 06:17:06;;;;;;;6.93;6.30;;;18.00;99.90;;;;;;5052960;28;20503;-45
2022/05/16 06:19:35;;;;;;;8.00;7.20;;;18.20;99.90;;;;;;5052514;28;20950;-45
2022/05/16 06:22:02;;;;;;;7.40;6.23;;;18.40;99.90;;;;;;5053121;28;20874;-44
2022/05/16 06:27:15;;;;;;;7.17;6.47;;;18.60;99.90;;;;;;5052421;28;20453;-47
2022/05/16 06:29:42;;;;;;;7.70;7.10;;;18.70;99.90;;;;;;5052265;28;20504;-44
2022/05/16 06:32:09;;;;;;;8.53;7.40;;;18.70;99.90;;;;;;5052601;28;21060;-44
2022/05/16 06:34:36;;;;;;;8.63;7.50;;;18.80;99.90;;;;;;5052218;28;20445;-46
2022/05/16 06:37:03;;;;;;;9.27;8.47;;;18.80;99.90;;;;;;5052230;28;20519;-44
2022/05/16 06:39:30;;;;;;;8.30;7.37;;;18.80;99.90;;;;;;5051965;28;20437;-43
2022/05/16 06:41:56;;;;;;;7.27;6.57;;;18.70;99.90;;;;;;5052484;28;20492;-44
2022/05/16 06:44:26;;;;;;;7.10;6.40;;;18.60;99.90;;;;;;5052340;28;20480;-44
2022/05/16 06:46:53;;;;;;;8.23;7.53;;;18.60;99.90;;;;;;5052173;28;20535;-44
2022/05/16 06:49:20;;;;;;;8.93;6.80;;;18.70;99.90;;;;;;5051085;28;20531;-44
2022/05/16 06:51:47;;;;;;;7.17;6.47;;;18.70;99.90;;;;;;5051967;28;20473;-45
2022/05/16 06:54:14;;;;;;;8.00;7.30;;;18.70;99.90;;;;;;5052060;28;20811;-44
2022/05/16 06:56:41;;;;;;;7.63;6.93;;;18.80;99.90;;;;;;5052044;28;20849;-44
2022/05/16 06:59:08;;;;;;;16.73;8.67;;;18.90;99.90;;;;;;5051912;28;20445;-45
2022/05/16 07:01:36;;;;;;;7.80;6.23;;;18.90;99.90;;;;;;5052292;28;20507;-44
2022/05/16 07:04:04;;;;;;;6.90;6.20;;;18.90;99.90;;;;;;5051913;28;20742;-45
2022/05/16 07:06:32;;;;;;;7.40;6.60;;;18.90;99.90;;;;;;5052298;28;21214;-44
2022/05/16 07:08:59;;;;;;;7.53;6.60;;;18.80;99.90;;;;;;5051544;28;20480;-46
2022/05/16 07:11:25;;;;;;;7.13;6.43;;;18.70;99.90;;;;;;5051680;28;20484;-44
2022/05/16 07:13:52;;;;;;;16.67;8.53;;;18.70;99.90;;;;;;5051550;28;20480;-45
2022/05/16 07:16:19;;;;;;;7.10;5.97;;;18.70;99.90;;;;;;5051609;28;20479;-44
2022/05/16 07:18:48;;;;;;;7.13;6.43;;;18.70;99.90;;;;;;5051272;28;20461;-46
2022/05/16 07:21:15;;;;;;;5.77;5.20;;;18.70;99.90;;;;;;5052009;28;20445;-44
2022/05/16 07:23:42;;;;;;;7.33;6.57;;;18.70;99.90;;;;;;5051437;28;20541;-43
2022/05/16 07:28:53;;;;;;;7.50;6.23;;;18.80;99.90;;;;;;5051214;28;20846;-45
2022/05/16 07:31:20;;;;;;;12.40;8.33;;;18.80;99.90;;;;;;5051599;28;20441;-44
2022/05/16 07:33:49;;;;;;;9.50;7.37;;;18.80;99.90;;;;;;5051491;28;20476;-47
2022/05/16 07:36:16;;;;;;;8.27;7.57;;;18.70;99.90;;;;;;5051402;28;20512;-45
2022/05/16 07:38:42;;;;;;;8.00;7.20;;;18.80;99.90;;;;;;5051335;28;20496;-45
2022/05/16 07:41:09;;;;;;;10.57;8.63;;;18.90;99.90;;;;;;5051037;28;20442;-44
2022/05/16 07:43:37;;;;;;;10.83;8.70;;;19.20;99.90;;;;;;5051954;28;20480;-44
2022/05/16 07:46:04;;;;;;;9.10;7.47;;;19.40;99.90;;;;;;5051718;28;20445;-44
2022/05/16 07:48:33;;;;;;;8.97;8.07;;;19.60;99.90;;;;;;5051001;28;20830;-44
2022/05/16 07:51:01;;;;;;;11.37;7.43;;;19.50;99.90;;;;;;5051287;28;20446;-44
2022/05/16 07:53:28;;;;;;;7.90;7.10;;;19.40;99.90;;;;;;5051578;28;20495;-44
2022/05/16 07:55:57;;;;;;;9.53;8.53;;;19.50;99.90;;;;;;5051248;28;20445;-44
2022/05/16 07:58:25;;;;;;;8.43;7.33;;;19.50;99.90;;;;;;5051273;28;20506;-44
2022/05/16 08:00:53;;;;;;;8.90;8.00;;;19.70;99.90;;;;;;5053823;28;20945;-45
2022/05/16 08:03:22;;;;;;;10.47;6.90;;;19.90;99.90;;;;;;5055305;28;20519;-44
2022/05/16 08:05:49;;;;;;;7.20;6.33;;;20.10;99.90;;;;;;5055308;28;20468;-45
2022/05/16 08:11:03;;;;;;;7.00;6.00;;;20.20;99.90;;;;;;5055122;28;20556;-45
2022/05/16 08:13:30;;;;;;;6.07;5.57;;;20.30;99.90;;;;;;5055089;28;20964;-46
2022/05/16 08:15:57;;;;;;;9.20;5.80;;;20.50;99.90;;;;;;5055046;28;20520;-44
2022/05/16 08:18:24;;;;;;;6.83;5.93;;;20.70;99.90;;;;;;5054759;28;20506;-45
2022/05/16 08:20:52;;;;;;;6.93;5.27;;;20.90;99.90;;;;;;5054578;28;20473;-44
2022/05/16 08:23:23;;;;;;;6.03;5.43;;;21.10;99.90;;;;;;5054698;28;20476;-45
2022/05/16 08:25:50;;;;;;;5.80;5.30;;;21.30;99.90;;;;;;5054941;28;20445;-44
2022/05/16 08:28:18;;;;;;;6.87;5.90;;;21.40;99.90;;;;;;5053848;28;21030;-50
2022/05/16 08:30:44;;;;;;;9.70;6.00;;;21.50;99.90;;;;;;5052434;28;21071;-44
2022/05/16 08:33:11;;;;;;;9.23;6.10;;;21.70;99.90;;;;;;5054641;28;20441;-45
2022/05/16 08:35:39;;;;;;;6.27;5.67;;;21.60;99.90;;;;;;5054892;28;20441;-44
2022/05/16 08:40:57;;;;;;;7.07;5.73;;;21.70;99.90;;;;;;5054371;28;20421;-49
2022/05/16 08:43:53;;;;;;;6.67;6.07;;;21.80;99.90;;;;;;5054691;28;20453;-44
2022/05/16 08:46:33;;;;;;;6.33;5.70;;;21.90;99.90;;;;;;5053808;28;20548;-47
2022/05/16 08:49:17;;;;;;;6.63;5.80;;;21.90;99.90;;;;;;5054040;28;20477;-48
2022/05/16 08:51:46;;;;;;;6.03;5.40;;;21.90;99.90;;;;;;5054167;28;20441;-46
2022/05/16 08:54:22;;;;;;;6.63;6.03;;;22.00;99.90;;;;;;5053396;28;20806;-45
2022/05/16 08:56:52;;;;;;;10.27;6.63;;;22.10;99.90;;;;;;5053745;28;20506;-44
2022/05/16 08:59:24;;;;;;;7.47;6.50;;;22.20;99.90;;;;;;5053870;28;20465;-45
2022/05/16 09:01:54;;;;;;;7.13;6.03;;;22.20;99.90;;;;;;5054527;28;20441;-45
2022/05/16 09:04:26;;;;;;;11.90;7.10;;;22.20;99.90;;;;;;5053449;28;20477;-46
2022/05/16 09:06:58;;;;;;;7.37;5.70;;;22.20;99.90;;;;;;5053416;28;20559;-45
2022/05/16 09:09:33;;;;;;;5.60;5.10;;;22.30;99.90;;;;;;5053281;28;20484;-44
2022/05/16 09:12:13;;;;;;;8.60;6.00;;;22.40;99.90;;;;;;5053325;28;20982;-44
2022/05/16 09:15:02;;;;;;;5.60;5.07;;;22.70;99.90;;;;;;5054156;28;20491;-45
2022/05/16 09:17:48;;;;;;;8.07;4.97;;;22.80;99.90;;;;;;5052176;28;20965;-45
2022/05/16 09:20:30;;;;;;;8.63;5.20;;;22.90;99.90;;;;;;5052005;28;20433;-42
2022/05/16 09:23:05;;;;;;;6.17;5.10;;;22.80;99.90;;;;;;5052548;28;20441;-42
2022/05/16 09:25:44;;;;;;;9.90;5.27;;;22.90;99.90;;;;;;5053357;28;20640;-42
2022/05/16 09:31:13;;;;;;;6.13;5.40;;;23.00;99.90;;;;;;5040435;28;20477;-43
2022/05/16 09:33:45;;;;;;;7.07;5.40;;;23.20;99.90;;;;;;5053440;28;20445;-42
2022/05/16 09:36:14;;;;;;;6.80;5.40;;;23.10;99.90;;;;;;5052751;28;20490;-42
2022/05/16 09:38:44;;;;;;;6.77;5.40;;;23.20;99.90;;;;;;5052316;28;20469;-49
2022/05/16 09:41:17;;;;;;;5.57;5.07;;;23.20;99.90;;;;;;5052480;28;20437;-43
2022/05/16 09:44:03;;;;;;;6.07;5.47;;;23.30;99.90;;;;;;5053519;28;20441;-43
2022/05/16 09:46:34;;;;;;;4.90;4.40;;;23.40;99.90;;;;;;5052324;28;20480;-43
2022/05/16 09:49:08;;;;;;;5.00;4.50;;;23.50;99.90;;;;;;5051311;28;20493;-42
2022/05/16 09:51:48;;;;;;;4.53;4.13;;;23.70;99.90;;;;;;5052261;28;20941;-42
2022/05/16 09:54:35;;;;;;;5.67;3.90;;;23.90;99.90;;;;;;5053136;28;20566;-41
2022/05/16 09:57:16;;;;;;;4.90;4.40;;;24.10;99.90;;;;;;5052974;28;20484;-42
2022/05/16 09:59:49;;;;;;;6.20;3.93;;;24.10;99.90;;;;;;5052782;28;20449;-44
2022/05/16 10:02:21;;;;;;;8.30;4.80;;;23.90;99.90;;;;;;5052962;28;20540;-41
2022/05/16 10:04:51;;;;;;;5.97;5.10;;;23.90;99.90;;;;;;5053103;28;20442;-42
2022/05/16 10:07:40;;;;;;;4.73;4.23;;;23.80;99.90;;;;;;5052901;28;21051;-42
2022/05/16 10:10:10;;;;;;;4.43;4.03;;;23.70;99.90;;;;;;5052211;28;20563;-44
2022/05/16 10:12:37;;;;;;;4.50;4.10;;;23.60;99.90;;;;;;5052991;28;20449;-42
2022/05/16 10:15:07;;;;;;;9.10;4.20;;;23.50;99.90;;;;;;5052752;28;20972;-42
2022/05/16 10:17:37;;;;;;;3.73;3.40;;;23.40;99.90;;;;;;5052634;28;20899;-45
2022/05/16 10:20:10;;;;;;;3.13;2.40;;;23.30;99.90;;;;;;5052300;28;20441;-42
2022/05/16 10:22:38;;;;;;;3.70;2.90;;;23.10;99.90;;;;;;5051433;28;20828;-42
2022/05/16 10:25:10;;;;;;;2.90;2.20;;;23.00;99.90;;;;;;5052054;28;20469;-42
2022/05/16 10:27:42;;;;;;;3.20;2.80;;;22.90;99.90;;;;;;5052554;28;20973;-42
2022/05/16 10:30:20;;;;;;;3.60;3.03;;;22.90;99.90;;;;;;5052274;28;20473;-42
2022/05/16 10:35:41;;;;;;;2.60;2.23;;;22.60;99.90;;;;;;5052186;28;20813;-42
2022/05/16 10:38:16;;;;;;;6.30;2.47;;;22.30;99.90;;;;;;5051981;28;20469;-42
2022/05/16 10:40:48;;;;;;;3.23;1.80;;;22.30;99.90;;;;;;5051758;28;20436;-43
2022/05/16 10:43:30;;;;;;;3.80;2.43;;;22.20;99.90;;;;;;5052155;28;20465;-41
2022/05/16 10:46:03;;;;;;;4.20;3.43;;;21.80;99.90;;;;;;5051991;28;20890;-42
2022/05/16 10:48:39;;;;;;;3.83;3.40;;;21.70;99.90;;;;;;5050873;28;20526;-42
2022/05/16 10:51:12;;;;;;;3.77;3.30;;;21.50;99.90;;;;;;5050922;28;20480;-43
2022/05/16 10:53:48;;;;;;;4.30;3.10;;;21.50;99.90;;;;;;5052059;28;20465;-41
2022/05/16 10:56:34;;;;;;;4.47;3.53;;;21.40;99.90;;;;;;5052260;28;20441;-42
2022/05/16 10:59:08;;;;;;;5.50;4.67;;;21.20;99.90;;;;;;5051196;28;20453;-42
2022/05/16 11:01:43;;;;;;;4.07;3.77;;;21.20;99.90;;;;;;5051728;28;20436;-42
2022/05/16 11:04:41;;;;;;;4.10;3.70;;;21.20;99.90;;;;;;5052231;28;20436;-41
2022/05/16 11:07:17;;;;;;;4.23;3.83;;;21.20;99.90;;;;;;5035415;28;20473;-43
2022/05/16 11:09:53;;;;;;;4.13;3.73;;;21.20;99.90;;;;;;5051601;28;20452;-42
2022/05/16 11:12:28;;;;;;;6.30;4.60;;;21.20;99.90;;;;;;5051661;28;20494;-42
2022/05/16 11:15:04;;;;;;;5.87;3.63;;;21.10;99.90;;;;;;5051425;28;20514;-42
2022/05/16 11:17:41;;;;;;;4.73;4.33;;;21.00;99.90;;;;;;5051558;28;20526;-44
2022/05/16 11:20:12;;;;;;;6.00;5.40;;;20.90;99.90;;;;;;5051403;28;20437;-44
2022/05/16 11:22:42;;;;;;;4.50;4.10;;;20.70;99.90;;;;;;5051104;28;20445;-44
2022/05/16 11:25:13;;;;;;;5.80;5.30;;;20.60;99.90;;;;;;5051611;28;20986;-44
2022/05/16 11:27:55;;;;;;;5.37;4.87;;;20.60;99.90;;;;;;5051615;28;20477;-47
2022/05/16 11:30:40;;;;;;;7.87;5.07;;;20.60;99.90;;;;;;5051187;28;20542;-45
2022/05/16 11:33:19;;;;;;;6.20;5.17;;;20.30;99.90;;;;;;5051318;28;20445;-45
2022/05/16 11:35:48;;;;;;;5.40;4.90;;;20.30;99.90;;;;;;5051054;28;20441;-44
2022/05/16 11:38:44;;;;;;;5.63;5.07;;;20.30;99.90;;;;;;5051363;28;20469;-46
2022/05/16 11:41:31;;;;;;;7.03;5.60;;;19.90;99.90;;;;;;5051275;28;20929;-45
2022/05/16 11:44:13;;;;;;;5.47;4.97;;;19.80;99.90;;;;;;5051205;28;20987;-44
2022/05/16 11:46:48;;;;;;;5.03;4.53;;;19.80;99.90;;;;;;5051071;28;20441;-44
2022/05/16 11:49:29;;;;;;;7.10;4.67;;;19.60;99.90;;;;;;5050872;28;20532;-44
2022/05/16 11:52:20;;;;;;;5.87;5.10;;;19.70;99.90;;;;;;5051306;28;20477;-47
2022/05/16 11:54:53;;;;;;;5.63;4.90;;;19.80;99.90;;;;;;5050999;28;20540;-44
2022/05/16 12:00:35;;;;;;;11.03;5.40;;;19.70;99.90;;;;;;5051034;28;21060;-44
2022/05/16 12:03:35;;;;;;;4.80;4.30;;;19.00;99.90;;;;;;5051347;28;20491;-44
2022/05/16 12:06:24;;;;;;;6.30;4.90;;;19.00;99.90;;;;;;5036515;28;20464;-44
2022/05/16 12:08:51;;;;;;;4.33;3.93;;;19.00;99.90;;;;;;5050987;28;20515;-46
2022/05/16 12:11:23;;;;;;;5.07;4.40;;;19.10;99.90;;;;;;5051031;28;20936;-43
2022/05/16 12:14:03;;;;;;;4.57;4.10;;;18.80;99.90;;;;;;5051129;28;20441;-44
2022/05/16 12:16:36;;;;;;;4.30;3.47;;;18.80;99.90;;;;;;5051260;28;20526;-44
2022/05/16 12:19:25;;;;;;;4.53;4.07;;;18.90;99.90;;;;;;5050808;28;20456;-45
2022/05/16 12:22:00;;;;;;;4.50;4.10;;;19.00;99.90;;;;;;5050870;28;20926;-44
2022/05/16 12:24:33;;;;;;;4.57;4.17;;;19.10;99.90;;;;;;5050729;28;20486;-44
2022/05/16 12:27:07;;;;;;;6.50;4.17;;;19.20;99.90;;;;;;5051369;28;20496;-44
2022/05/16 12:29:44;;;;;;;5.17;4.67;;;19.40;99.90;;;;;;5051141;28;20441;-43
2022/05/16 12:32:21;;;;;;;5.10;4.60;;;19.50;99.90;;;;;;5050791;28;20988;-45
2022/05/16 12:34:50;;;;;;;6.20;5.00;;;19.60;99.90;;;;;;5051102;28;20880;-48
2022/05/16 12:37:20;;;;;;;6.07;5.03;;;19.70;99.90;;;;;;5050780;28;20460;-45
2022/05/16 12:40:03;;;;;;;6.03;4.57;;;19.70;99.90;;;;;;5050899;28;20525;-45
2022/05/16 12:43:03;;;;;;;5.23;4.73;;;19.80;99.90;;;;;;5051320;28;20449;-44
2022/05/16 12:46:06;;;;;;;7.53;5.07;;;19.80;99.90;;;;;;5050500;28;20862;-44
2022/05/16 12:48:53;;;;;;;5.80;4.90;;;19.90;99.90;;;;;;5049103;28;20465;-44
2022/05/16 12:51:36;;;;;;;5.80;5.27;;;20.00;99.90;;;;;;5054305;28;20499;-45
2022/05/16 12:54:28;;;;;;;5.70;5.10;;;20.00;99.90;;;;;;5054455;28;20884;-44
2022/05/16 12:56:57;;;;;;;6.57;4.83;;;20.10;99.90;;;;;;5054276;28;20493;-44
2022/05/16 12:59:49;;;;;;;5.50;5.00;;;20.10;99.90;;;;;;5054218;28;20645;-44
2022/05/16 13:02:22;;;;;;;4.73;4.23;;;20.10;99.90;;;;;;5054626;28;20491;-44
2022/05/16 13:05:05;;;;;;;4.77;4.13;;;20.10;99.90;;;;;;5054369;28;20437;-47
2022/05/16 13:07:46;;;;;;;4.40;4.00;;;20.10;99.90;;;;;;5054222;28;20456;-44
2022/05/16 13:10:29;;;;;;;5.90;4.30;;;20.10;99.90;;;;;;5052741;28;20437;-45
2022/05/16 13:13:04;;;;;;;4.53;4.13;;;20.10;99.90;;;;;;5054104;28;20445;-45
2022/05/16 13:15:39;;;;;;;4.87;4.37;;;20.10;99.90;;;;;;5054189;28;20937;-48
2022/05/16 13:18:12;;;;;;;5.03;4.63;;;20.10;99.90;;;;;;5053846;28;20883;-44
2022/05/16 13:20:45;;;;;;;5.40;4.90;;;20.10;99.90;;;;;;5053537;28;20442;-47
2022/05/16 13:23:13;;;;;;;8.03;5.17;;;20.10;99.90;;;;;;5053812;28;20809;-47
2022/05/16 13:31:10;;;;;;;6.40;5.20;;;20.20;99.90;;;;;;5054073;28;20488;-50
2022/05/16 13:33:39;;;;;;;5.03;4.50;;;20.20;99.90;;;;;;5053872;28;20437;-44
2022/05/16 13:36:17;;;;;;;5.30;4.80;;;20.20;99.90;;;;;;5053512;28;20950;-48
2022/05/16 13:38:46;;;;;;;5.60;5.10;;;20.20;99.90;;;;;;5053279;28;20981;-48
2022/05/16 13:41:15;;;;;;;4.57;4.17;;;20.20;99.90;;;;;;5053244;28;20524;-45
2022/05/16 13:43:42;;;;;;;6.10;5.23;;;20.20;99.90;;;;;;5053292;28;20449;-44
2022/05/16 13:46:13;;;;;;;6.43;4.60;;;20.20;99.90;;;;;;5053356;28;20468;-45